createdAt,value
2018-06-11T00:01:37.033Z,22.50
2018-06-11T00:04:05.320Z,22.50
2018-06-11T00:06:33.564Z,22.50
2018-06-11T00:09:01.837Z,22.50
2018-06-11T00:11:30.113Z,22.40
2018-06-11T00:13:58.392Z,22.30
2018-06-11T00:16:26.671Z,22.30
2018-06-11T00:18:54.906Z,22.30
2018-06-11T00:21:23.178Z,22.20
2018-06-11T00:23:51.407Z,22.10
2018-06-11T00:26:19.712Z,22.00
2018-06-11T00:28:48.116Z,22.00
2018-06-11T00:31:16.407Z,22.00
2018-06-11T00:33:44.643Z,21.90
2018-06-11T00:36:12.938Z,21.90
2018-06-11T00:38:41.176Z,21.90
2018-06-11T00:41:09.477Z,21.70
2018-06-11T00:43:37.783Z,21.60
2018-06-11T00:46:06.068Z,21.50
2018-06-11T00:48:34.421Z,21.50
2018-06-11T00:51:03.593Z,21.50
2018-06-11T00:53:31.875Z,21.50
2018-06-11T00:56:09.944Z,21.50
2018-06-11T00:58:38.299Z,21.60
2018-06-11T01:01:06.644Z,21.60
2018-06-11T01:03:35.018Z,21.70
2018-06-11T01:06:03.300Z,21.70
2018-06-11T01:08:31.575Z,21.60
2018-06-11T01:10:59.875Z,21.70
2018-06-11T01:13:28.162Z,21.60
2018-06-11T01:15:56.468Z,21.70
2018-06-11T01:18:24.745Z,21.70
2018-06-11T01:20:53.027Z,21.70
2018-06-11T01:23:21.315Z,21.70
2018-06-11T01:25:49.594Z,21.70
2018-06-11T01:28:17.851Z,21.70
2018-06-11T01:30:46.153Z,21.70
2018-06-11T01:33:14.380Z,21.60
2018-06-11T01:35:42.641Z,21.60
2018-06-11T01:38:10.878Z,21.50
2018-06-11T01:40:39.193Z,21.50
2018-06-11T01:43:07.480Z,21.60
2018-06-11T01:45:35.806Z,21.50
2018-06-11T01:48:04.103Z,21.50
2018-06-11T01:50:32.371Z,21.40
2018-06-11T01:53:00.617Z,21.40
2018-06-11T01:55:28.879Z,21.30
2018-06-11T01:57:57.168Z,21.20
2018-06-11T02:00:25.563Z,21.20
2018-06-11T02:02:53.857Z,21.20
2018-06-11T02:07:50.112Z,21.10
2018-06-11T02:10:18.440Z,21.00
2018-06-11T02:12:46.744Z,20.80
2018-06-11T02:15:15.053Z,20.80
2018-06-11T02:17:43.319Z,20.80
2018-06-11T02:20:11.595Z,20.80
2018-06-11T02:22:39.868Z,20.70
2018-06-11T02:25:08.098Z,20.80
2018-06-11T02:27:36.388Z,20.90
2018-06-11T02:30:05.149Z,20.70
2018-06-11T02:32:33.403Z,20.70
2018-06-11T02:35:01.760Z,20.70
2018-06-11T02:37:30.077Z,20.70
2018-06-11T02:39:58.359Z,20.70
2018-06-11T02:42:26.665Z,20.80
2018-06-11T02:44:54.958Z,20.70
2018-06-11T02:47:23.246Z,20.80
2018-06-11T02:49:51.499Z,20.80
2018-06-11T02:52:19.755Z,20.80
2018-06-11T02:54:48.197Z,20.80
2018-06-11T02:57:16.482Z,20.80
2018-06-11T02:59:44.782Z,20.80
2018-06-11T03:02:13.093Z,20.80
2018-06-11T03:04:41.362Z,20.80
2018-06-11T03:07:09.626Z,20.80
2018-06-11T03:09:37.941Z,20.70
2018-06-11T03:12:06.222Z,20.70
2018-06-11T03:14:34.503Z,20.60
2018-06-11T03:17:02.774Z,20.70
2018-06-11T03:19:30.992Z,20.70
2018-06-11T03:21:59.295Z,20.70
2018-06-11T03:24:27.548Z,20.70
2018-06-11T03:26:55.812Z,20.60
2018-06-11T03:29:24.111Z,20.50
2018-06-11T03:31:52.358Z,20.50
2018-06-11T03:34:20.650Z,20.40
2018-06-11T03:36:48.939Z,20.40
2018-06-11T03:39:17.213Z,20.20
2018-06-11T03:41:45.483Z,20.30
2018-06-11T03:44:13.744Z,20.20
2018-06-11T03:46:41.988Z,20.30
2018-06-11T03:49:10.283Z,20.20
2018-06-11T03:51:38.598Z,20.20
2018-06-11T03:54:07.106Z,20.20
2018-06-11T03:59:03.399Z,20.20
2018-06-11T04:01:31.695Z,20.10
2018-06-11T04:03:59.956Z,20.00
2018-06-11T04:06:28.235Z,20.00
2018-06-11T04:08:56.572Z,20.00
2018-06-11T04:11:24.831Z,20.00
2018-06-11T04:13:53.899Z,20.00
2018-06-11T04:16:22.133Z,20.00
2018-06-11T04:18:50.637Z,20.00
2018-06-11T04:21:18.900Z,19.90
2018-06-11T04:23:47.158Z,19.90
2018-06-11T04:26:15.495Z,19.90
2018-06-11T04:28:43.768Z,19.70
2018-06-11T04:31:12.069Z,19.80
2018-06-11T04:33:40.404Z,19.80
2018-06-11T04:36:08.647Z,19.80
2018-06-11T04:38:36.890Z,19.80
2018-06-11T04:41:05.119Z,19.90
2018-06-11T04:43:33.467Z,20.00
2018-06-11T04:46:01.701Z,20.00
2018-06-11T04:48:29.974Z,20.20
2018-06-11T04:50:58.250Z,20.30
2018-06-11T04:53:26.533Z,20.40
2018-06-11T04:55:54.823Z,20.50
2018-06-11T04:58:23.101Z,20.70
2018-06-11T05:00:51.435Z,20.80
2018-06-11T05:03:19.922Z,20.90
2018-06-11T05:05:48.193Z,20.90
2018-06-11T05:08:16.453Z,20.90
2018-06-11T05:10:44.753Z,21.00
2018-06-11T05:13:13.057Z,21.00
2018-06-11T05:15:41.328Z,21.00
2018-06-11T05:18:09.955Z,20.80
2018-06-11T05:20:38.222Z,20.80
2018-06-11T05:23:06.478Z,20.90
2018-06-11T05:25:34.784Z,21.10
2018-06-11T05:28:03.086Z,21.20
2018-06-11T05:30:31.392Z,21.30
2018-06-11T05:32:59.674Z,21.10
2018-06-11T05:35:27.988Z,21.10
2018-06-11T05:37:56.309Z,21.10
2018-06-11T05:40:24.683Z,21.20
2018-06-11T05:42:52.903Z,21.20
2018-06-11T05:45:21.194Z,21.20
2018-06-11T05:47:49.528Z,21.20
2018-06-11T05:50:17.805Z,21.10
2018-06-11T05:52:46.090Z,21.00
2018-06-11T05:55:14.485Z,21.00
2018-06-11T05:57:42.768Z,20.90
2018-06-11T06:00:11.151Z,20.90
2018-06-11T06:02:39.389Z,20.90
2018-06-11T06:07:35.841Z,21.60
2018-06-11T06:12:32.171Z,22.00
2018-06-11T06:15:00.412Z,21.70
2018-06-11T06:17:28.722Z,21.90
2018-06-11T06:19:57.043Z,22.20
2018-06-11T06:22:25.326Z,22.30
2018-06-11T06:24:53.656Z,22.40
2018-06-11T06:27:21.915Z,22.50
2018-06-11T06:29:50.193Z,22.30
2018-06-11T06:32:18.500Z,22.30
2018-06-11T06:34:46.869Z,22.40
2018-06-11T06:37:15.092Z,22.40
2018-06-11T06:39:43.352Z,22.30
2018-06-11T06:42:11.632Z,22.50
2018-06-11T06:44:39.935Z,22.70
2018-06-11T06:47:08.140Z,23.10
2018-06-11T06:49:36.462Z,23.80
2018-06-11T06:52:04.685Z,23.90
2018-06-11T06:54:32.958Z,23.50
2018-06-11T06:57:01.237Z,23.70
2018-06-11T06:59:29.545Z,23.80
2018-06-11T07:01:57.827Z,24.30
2018-06-11T07:04:26.119Z,25.10
2018-06-11T07:06:54.360Z,25.50
2018-06-11T07:09:22.588Z,25.50
2018-06-11T07:11:50.876Z,25.50
2018-06-11T07:14:19.173Z,25.00
2018-06-11T07:16:47.448Z,24.70
2018-06-11T07:19:15.681Z,24.30
2018-06-11T07:21:43.973Z,24.20
2018-06-11T07:24:12.280Z,24.20
2018-06-11T07:26:40.524Z,24.50
2018-06-11T07:29:08.817Z,24.70
2018-06-11T07:31:37.067Z,24.50
2018-06-11T07:34:05.382Z,24.90
2018-06-11T07:36:33.680Z,24.70
2018-06-11T07:39:01.952Z,24.10
2018-06-11T07:41:30.253Z,23.80
2018-06-11T07:43:58.524Z,24.00
2018-06-11T07:46:26.847Z,24.00
2018-06-11T07:48:55.146Z,23.70
2018-06-11T07:51:23.449Z,23.70
2018-06-11T07:53:51.725Z,23.90
2018-06-11T07:56:19.991Z,24.50
2018-06-11T07:58:48.260Z,25.10
2018-06-11T08:03:44.505Z,26.00
2018-06-11T08:06:12.792Z,25.90
2018-06-11T08:11:09.030Z,27.00
2018-06-11T08:16:05.417Z,27.40
2018-06-11T08:18:33.703Z,27.60
2018-06-11T08:21:01.996Z,26.80
2018-06-11T08:23:30.213Z,26.50
2018-06-11T08:25:58.472Z,26.30
2018-06-11T08:28:26.759Z,26.50
2018-06-11T08:30:55.016Z,26.40
2018-06-11T08:33:23.272Z,26.40
2018-06-11T08:35:51.539Z,26.30
2018-06-11T08:38:20.429Z,26.60
2018-06-11T08:40:48.729Z,26.50
2018-06-11T08:43:17.039Z,27.10
2018-06-11T08:45:45.289Z,26.60
2018-06-11T08:48:13.556Z,26.60
2018-06-11T08:50:41.847Z,26.50
2018-06-11T08:53:10.116Z,25.80
2018-06-11T08:55:38.413Z,26.10
2018-06-11T08:58:06.717Z,25.70
2018-06-11T09:00:35.009Z,25.40
2018-06-11T09:03:03.279Z,25.60
2018-06-11T09:05:32.087Z,26.10
2018-06-11T09:08:00.424Z,25.80
2018-06-11T09:10:28.684Z,25.30
2018-06-11T09:12:56.936Z,24.80
2018-06-11T09:15:25.241Z,24.70
2018-06-11T09:17:53.540Z,24.90
2018-06-11T09:20:21.770Z,24.80
2018-06-11T09:22:50.055Z,24.60
2018-06-11T09:25:18.352Z,24.70
2018-06-11T09:27:46.678Z,24.90
2018-06-11T09:30:14.932Z,25.10
2018-06-11T09:32:43.232Z,25.20
2018-06-11T09:35:11.527Z,24.90
2018-06-11T09:37:39.736Z,24.70
2018-06-11T09:40:07.991Z,24.80
2018-06-11T09:45:04.302Z,25.20
2018-06-11T09:47:32.565Z,25.20
2018-06-11T09:50:00.836Z,25.40
2018-06-11T09:52:29.120Z,25.40
2018-06-11T09:54:57.402Z,25.40
2018-06-11T09:57:25.660Z,24.90
2018-06-11T09:59:53.914Z,25.10
2018-06-11T10:02:22.178Z,25.40
2018-06-11T10:04:50.469Z,25.50
2018-06-11T10:07:18.764Z,25.80
2018-06-11T10:09:47.080Z,26.20
2018-06-11T10:12:15.317Z,28.10
2018-06-11T10:14:43.632Z,28.80
2018-06-11T10:17:11.931Z,30.30
2018-06-11T10:22:08.252Z,32.60
2018-06-11T10:24:36.498Z,33.60
2018-06-11T10:27:04.787Z,32.40
2018-06-11T10:29:33.121Z,31.20
2018-06-11T10:32:01.369Z,31.90
2018-06-11T10:34:29.610Z,31.80
2018-06-11T10:36:57.941Z,31.80
2018-06-11T10:39:26.203Z,32.00
2018-06-11T10:44:23.168Z,32.80
2018-06-11T10:46:51.467Z,34.00
2018-06-11T10:49:19.732Z,33.70
2018-06-11T10:51:48.031Z,33.70
2018-06-11T10:54:16.259Z,34.40
2018-06-11T10:56:44.499Z,33.80
2018-06-11T10:59:12.800Z,33.50
2018-06-11T11:01:41.090Z,33.60
2018-06-11T11:04:09.402Z,33.70
2018-06-11T11:06:37.677Z,34.00
2018-06-11T11:09:06.679Z,34.30
2018-06-11T11:11:35.009Z,34.60
2018-06-11T11:16:31.355Z,34.40
2018-06-11T11:18:59.596Z,34.30
2018-06-11T11:21:27.870Z,34.80
2018-06-11T11:23:56.128Z,35.50
2018-06-11T11:26:24.375Z,34.50
2018-06-11T11:28:52.578Z,34.40
2018-06-11T11:31:20.835Z,34.40
2018-06-11T11:33:49.105Z,34.60
2018-06-11T11:36:17.309Z,33.70
2018-06-11T11:38:45.587Z,33.60
2018-06-11T11:41:13.867Z,33.80
2018-06-11T11:43:42.163Z,33.30
2018-06-11T11:46:11.387Z,32.90
2018-06-11T11:48:39.658Z,32.90
2018-06-11T11:51:08.084Z,33.40
2018-06-11T11:53:36.262Z,32.90
2018-06-11T11:56:04.567Z,33.20
2018-06-11T11:58:32.826Z,33.40
2018-06-11T12:01:01.121Z,33.00
2018-06-11T12:03:29.455Z,32.60
2018-06-11T12:05:58.435Z,33.00
2018-06-11T12:10:54.810Z,32.80
2018-06-11T12:13:23.142Z,33.10
2018-06-11T12:15:51.432Z,33.70
2018-06-11T12:20:47.642Z,32.20
2018-06-11T12:23:15.938Z,32.10
2018-06-11T12:28:12.309Z,31.90
2018-06-11T12:30:40.679Z,31.80
2018-06-11T12:35:37.009Z,32.40
2018-06-11T12:38:05.259Z,31.90
2018-06-11T12:40:33.530Z,32.00
2018-06-11T12:43:01.913Z,31.60
2018-06-11T12:45:30.256Z,31.50
2018-06-11T12:47:58.586Z,31.20
2018-06-11T12:50:26.874Z,30.90
2018-06-11T12:55:23.186Z,31.00
2018-06-11T12:57:51.458Z,30.90
2018-06-11T13:00:19.700Z,30.60
2018-06-11T13:02:47.996Z,30.20
2018-06-11T13:05:16.282Z,30.30
2018-06-11T13:07:44.539Z,30.80
2018-06-11T13:10:12.829Z,30.60
2018-06-11T13:12:41.073Z,30.50
2018-06-11T13:15:09.967Z,30.30
2018-06-11T13:17:38.207Z,30.10
2018-06-11T13:20:06.487Z,30.40
2018-06-11T13:22:34.812Z,30.50
2018-06-11T13:25:03.130Z,30.10
2018-06-11T13:27:31.502Z,29.80
2018-06-11T13:29:59.946Z,29.70
2018-06-11T13:32:28.329Z,29.30
2018-06-11T13:34:56.651Z,29.10
2018-06-11T13:37:24.881Z,28.30
2018-06-11T13:39:53.184Z,28.40
2018-06-11T13:42:21.556Z,28.40
2018-06-11T13:44:49.843Z,28.30
2018-06-11T13:47:18.133Z,28.00
2018-06-11T13:49:46.430Z,27.90
2018-06-11T13:52:14.696Z,27.90
2018-06-11T13:54:42.972Z,27.70
2018-06-11T13:57:11.268Z,27.50
2018-06-11T13:59:39.519Z,27.40
2018-06-11T14:02:07.849Z,27.30
2018-06-11T14:04:36.103Z,27.20
2018-06-11T14:07:04.411Z,27.20
2018-06-11T14:09:32.714Z,27.30
2018-06-11T14:12:00.981Z,27.20
2018-06-11T14:14:29.267Z,26.80
2018-06-11T14:16:57.601Z,26.70
2018-06-11T14:19:25.831Z,26.60
2018-06-11T14:21:54.313Z,26.40
2018-06-11T14:29:18.654Z,26.10
2018-06-11T14:31:46.928Z,26.00
2018-06-11T14:34:15.170Z,25.90
2018-06-11T14:36:43.442Z,25.90
2018-06-11T14:39:11.747Z,25.80
2018-06-11T14:41:40.051Z,25.60
2018-06-11T14:44:08.363Z,25.60
2018-06-11T14:46:36.647Z,25.60
2018-06-11T14:49:05.005Z,25.50
2018-06-11T14:51:33.365Z,25.50
2018-06-11T14:54:01.665Z,25.50
2018-06-11T14:56:29.959Z,25.40
2018-06-11T14:58:58.322Z,25.40
2018-06-11T15:01:26.588Z,25.50
2018-06-11T15:03:54.877Z,25.50
2018-06-11T15:06:23.224Z,25.50
2018-06-11T15:08:51.640Z,25.40
2018-06-11T15:11:19.913Z,25.30
2018-06-11T15:13:48.270Z,25.20
2018-06-11T15:16:16.605Z,25.20
2018-06-11T15:18:44.908Z,25.10
2018-06-11T15:21:13.266Z,25.10
2018-06-11T15:23:41.496Z,24.80
2018-06-11T15:26:09.783Z,24.90
2018-06-11T15:28:38.084Z,24.90
2018-06-11T15:33:34.345Z,24.70
2018-06-11T15:36:02.628Z,24.70
2018-06-11T15:38:30.894Z,24.60
2018-06-11T15:43:27.116Z,24.50
2018-06-11T15:45:55.419Z,24.60
2018-06-11T15:48:23.746Z,24.60
2018-06-11T15:50:52.090Z,24.60
2018-06-11T15:53:20.387Z,24.60
2018-06-11T15:55:48.623Z,24.70
2018-06-11T15:58:16.891Z,24.50
2018-06-11T16:00:45.137Z,24.50
2018-06-11T16:03:13.448Z,24.50
2018-06-11T16:05:41.737Z,24.30
2018-06-11T16:08:10.349Z,24.30
2018-06-11T16:10:38.659Z,24.30
2018-06-11T16:13:06.955Z,24.00
2018-06-11T16:15:35.211Z,23.70
2018-06-11T16:18:03.500Z,23.80
2018-06-11T16:22:59.832Z,23.80
2018-06-11T16:25:28.652Z,23.80
2018-06-11T16:27:56.870Z,23.90
2018-06-11T16:30:25.151Z,23.80
2018-06-11T16:32:53.429Z,23.80
2018-06-11T16:35:21.701Z,23.80
2018-06-11T16:37:50.005Z,23.90
2018-06-11T16:40:18.345Z,23.80
2018-06-11T16:42:46.609Z,23.90
2018-06-11T16:45:14.966Z,24.00
2018-06-11T16:47:43.360Z,24.00
2018-06-11T16:50:11.642Z,24.10
2018-06-11T16:52:39.865Z,24.10
2018-06-11T16:55:08.127Z,24.00
2018-06-11T16:57:36.394Z,23.70
2018-06-11T17:00:04.735Z,23.60
2018-06-11T17:02:33.042Z,23.40
2018-06-11T17:05:01.294Z,23.50
2018-06-11T17:07:29.667Z,23.70
2018-06-11T17:09:57.905Z,23.80
2018-06-11T17:12:26.158Z,23.90
2018-06-11T17:14:54.419Z,23.90
2018-06-11T17:17:22.759Z,24.00
2018-06-11T17:19:51.052Z,24.00
2018-06-11T17:22:19.348Z,23.90
2018-06-11T17:24:47.590Z,23.90
2018-06-11T17:27:15.877Z,23.80
2018-06-11T17:29:44.167Z,23.80
2018-06-11T17:32:12.442Z,23.90
2018-06-11T17:34:40.811Z,23.80
2018-06-11T17:37:09.107Z,23.90
2018-06-11T17:39:37.571Z,23.80
2018-06-11T17:42:06.466Z,23.70
2018-06-11T17:44:34.892Z,23.70
2018-06-11T17:47:03.943Z,23.70
2018-06-11T17:49:32.241Z,23.70
2018-06-11T17:52:00.534Z,23.70
2018-06-11T17:54:29.000Z,23.70
2018-06-11T17:56:57.406Z,23.60
2018-06-11T18:01:53.685Z,23.50
2018-06-11T18:04:22.132Z,23.50
2018-06-11T18:06:50.384Z,23.30
2018-06-11T18:09:19.082Z,23.30
2018-06-11T18:11:47.596Z,23.20
2018-06-11T18:14:16.074Z,23.10
2018-06-11T18:16:44.473Z,23.10
2018-06-11T18:19:13.144Z,23.10
2018-06-11T18:21:41.379Z,23.10
2018-06-11T18:24:09.657Z,23.20
2018-06-11T18:26:37.923Z,23.20
2018-06-11T18:29:06.200Z,23.10
2018-06-11T18:31:34.517Z,23.10
2018-06-11T18:34:02.934Z,23.10
2018-06-11T18:36:31.383Z,23.20
2018-06-11T18:38:59.751Z,23.20
2018-06-11T18:46:24.195Z,23.00
2018-06-11T18:48:52.581Z,23.00
2018-06-11T18:51:20.966Z,23.00
2018-06-11T18:53:49.333Z,22.80
2018-06-11T18:56:17.692Z,22.80
2018-06-11T18:58:46.053Z,22.80
2018-06-11T19:03:42.382Z,22.70
2018-06-11T19:06:10.751Z,22.70
2018-06-11T19:08:39.067Z,22.60
2018-06-11T19:11:07.576Z,22.60
2018-06-11T19:13:35.891Z,22.40
2018-06-11T19:16:04.399Z,22.30
2018-06-11T19:18:32.665Z,22.30
2018-06-11T19:21:00.970Z,22.30
2018-06-11T19:23:29.288Z,22.30
2018-06-11T19:25:57.566Z,22.20
2018-06-11T19:28:26.042Z,22.10
2018-06-11T19:30:54.392Z,22.10
2018-06-11T19:33:22.719Z,22.10
2018-06-11T19:35:51.042Z,22.00
2018-06-11T19:38:19.353Z,21.90
2018-06-11T19:40:47.714Z,21.80
2018-06-11T19:43:16.008Z,21.80
2018-06-11T19:45:44.331Z,21.70
2018-06-11T19:48:12.606Z,21.70
2018-06-11T19:50:42.479Z,21.70
2018-06-11T19:53:10.875Z,21.60
2018-06-11T19:55:39.216Z,21.60
2018-06-11T19:58:07.527Z,21.50
2018-06-11T20:00:36.094Z,21.60
2018-06-11T20:03:04.420Z,21.50
2018-06-11T20:05:32.675Z,21.40
2018-06-11T20:08:00.974Z,21.40
2018-06-11T20:10:29.253Z,21.30
2018-06-11T20:12:57.532Z,21.30
2018-06-11T20:15:25.843Z,21.30
2018-06-11T20:17:54.153Z,21.20
2018-06-11T20:20:22.455Z,21.10
2018-06-11T20:22:50.924Z,21.00
2018-06-11T20:25:19.194Z,21.00
2018-06-11T20:27:47.481Z,21.00
2018-06-11T20:30:15.745Z,21.10
2018-06-11T20:35:12.113Z,21.10
2018-06-11T20:37:40.440Z,21.10
2018-06-11T20:40:08.770Z,21.10
2018-06-11T20:42:37.059Z,21.00
2018-06-11T20:45:05.323Z,21.00
2018-06-11T20:47:33.720Z,20.80
2018-06-11T20:50:02.065Z,20.70
2018-06-11T20:54:58.438Z,20.80
2018-06-11T20:57:26.691Z,20.60
2018-06-11T20:59:54.972Z,20.60
2018-06-11T21:02:23.214Z,20.50
2018-06-11T21:04:51.470Z,20.50
2018-06-11T21:07:19.775Z,20.50
2018-06-11T21:09:48.090Z,20.50
2018-06-11T21:12:16.388Z,20.50
2018-06-11T21:14:44.692Z,20.40
2018-06-11T21:17:12.976Z,20.40
2018-06-11T21:19:41.281Z,20.30
2018-06-11T21:22:09.528Z,20.30
2018-06-11T21:24:37.780Z,20.40
2018-06-11T21:27:06.104Z,20.40
2018-06-11T21:29:34.376Z,20.40
2018-06-11T21:34:30.753Z,20.50
2018-06-11T21:36:59.072Z,20.50
2018-06-11T21:39:27.340Z,20.50
2018-06-11T21:41:55.640Z,20.50
2018-06-11T21:44:23.932Z,20.50
2018-06-11T21:49:20.236Z,20.50
2018-06-11T21:51:48.531Z,20.50
2018-06-11T21:54:16.778Z,20.50
2018-06-11T21:56:44.992Z,20.50
2018-06-11T21:59:13.289Z,20.60
2018-06-11T22:01:41.607Z,20.50
2018-06-11T22:04:09.926Z,20.40
2018-06-11T22:06:38.109Z,20.50
2018-06-11T22:11:35.511Z,20.40
2018-06-11T22:14:03.812Z,20.40
2018-06-11T22:16:32.092Z,20.30
2018-06-11T22:19:00.342Z,20.20
2018-06-11T22:21:28.620Z,20.10
2018-06-11T22:23:56.920Z,20.10
2018-06-11T22:26:25.216Z,20.20
2018-06-11T22:28:53.536Z,20.20
2018-06-11T22:31:21.815Z,20.30
2018-06-11T22:33:50.088Z,20.20
2018-06-11T22:36:18.365Z,20.30
2018-06-11T22:38:46.644Z,20.20
2018-06-11T22:41:14.918Z,20.20
2018-06-11T22:43:43.239Z,20.20
2018-06-11T22:46:11.501Z,20.20
2018-06-11T22:48:39.771Z,20.00
2018-06-11T22:51:08.058Z,20.00
2018-06-11T22:53:36.297Z,20.10
2018-06-11T22:56:04.748Z,20.10
2018-06-11T22:58:33.010Z,20.10
2018-06-11T23:01:01.286Z,20.10
2018-06-11T23:03:29.525Z,20.10
2018-06-11T23:05:57.804Z,20.10
2018-06-11T23:08:26.084Z,20.10
2018-06-11T23:10:54.385Z,20.10
2018-06-11T23:13:22.725Z,20.10
2018-06-11T23:15:51.045Z,20.10
2018-06-11T23:18:19.290Z,20.10
2018-06-11T23:20:47.553Z,20.10
2018-06-11T23:23:15.834Z,20.10
2018-06-11T23:25:44.119Z,20.10
2018-06-11T23:28:12.437Z,20.10
2018-06-11T23:30:40.678Z,20.10
2018-06-11T23:33:08.936Z,20.10
2018-06-11T23:35:37.186Z,20.00
2018-06-11T23:38:05.481Z,20.00
2018-06-11T23:40:33.756Z,20.00
2018-06-11T23:43:02.058Z,20.00
2018-06-11T23:45:30.349Z,19.80
2018-06-11T23:47:58.658Z,19.80
2018-06-11T23:52:54.987Z,19.80
2018-06-11T23:55:23.262Z,19.70
2018-06-11T23:57:51.508Z,19.70
